Airfield :
LOGIN :

Register | Disclaimer

   EN    FR    IT 

 










Legend :    VFR   Marginal VFR   IFR   Intensive IFR   Very Intensive IFR
Visi :
Ceiling :
>= 8 km
>= 3000ft
5 to 8 km
1000 to 3000 ft
1500m to 5 km
500 to 1000 ft
800 to 1500m
200 to 500 ft
< 800m
< 200 ft
Symbols :   Thunderstorms  Fog  Heavy snow  Heavy precipitations  Wind > 20 kt
SIGMETs :     Misc.  Thunderstorms  Icing  Turbulence  Mountain Waves  Volcanic Ashes






- Airport Elevation : 1 ft


EGCK - Caernarfon

CURRENT METAR :
  • 052220Z AUTO 19004KT 160V230 9999 FEW012/// OVC022/// 16/16 Q1011 RERA REDZ

EXPIRED METARs :
  • 052150Z AUTO 20004KT 8000 -RA FEW006/// BKN011/// OVC023/// 16/15 Q1011
  • 052120Z AUTO 21006KT 9999 -RA BKN002/// OVC012/// 16/16 Q1011 RERA
  • 052050Z AUTO 20004KT 160V240 9999 OVC006/// 16/15 Q1010
  • 052020Z AUTO 17008KT 9999 BKN002/// OVC012/// 16/15 Q1010 RERA
  • 051950Z AUTO 18007KT 6000 -RA BKN005/// OVC016/// 16/15 Q1009

TAF COR TAF EGCK
Valid from the 05 at 22:00 until the 06 at 06:00 UTC


052210Z 0522/0606 24009KT 9999 BKN015
TEMPO 0522/0524 8000 -RA BKN007
PROB30
TEMPO 0522/0524 BKN004



MET'MAP, your aeronautical weather chart ! - Copyright ORBIFLY December 2007 - Disclaimer

ORBIFLY MET'MAP TEAM :

Programming & Development : Alexandra Zaïnal
Concept & original design : Baudouin d'Aumeries
Assistance for programming : Marc-Olivier Méhu
Technical & hardware support : Manuel Goepfert

Contact : metmap@orbifly.com




SOURCES & CREDITS :

   NOAA